createdAt,value
2023-11-22T00:02:19.478Z,98024.41
2023-11-22T00:04:46.670Z,98017.25
2023-11-22T00:07:13.753Z,98029.31
2023-11-22T00:09:40.881Z,98021.84
2023-11-22T00:12:09.807Z,98020.28
2023-11-22T00:14:37.389Z,98017.91
2023-11-22T00:17:05.318Z,98023.28
2023-11-22T00:19:33.621Z,98010.44
2023-11-22T00:22:00.728Z,98003.88
2023-11-22T00:24:27.817Z,98001.41
2023-11-22T00:26:54.870Z,97998.41
2023-11-22T00:29:23.307Z,98003.34
2023-11-22T00:31:50.268Z,97998.41
2023-11-22T00:34:21.135Z,97997.41
2023-11-22T00:36:50.051Z,97991.31
2023-11-22T00:39:17.788Z,98003.13
2023-11-22T00:41:48.092Z,97999.56
2023-11-22T00:44:15.174Z,97990.06
2023-11-22T00:46:43.726Z,97993.28
2023-11-22T00:49:10.850Z,97992.97
2023-11-22T00:51:38.013Z,98001.31
2023-11-22T00:54:05.963Z,98008.16
2023-11-22T00:56:33.395Z,98016.28
2023-11-22T00:59:05.211Z,98021.28
2023-11-22T01:01:33.054Z,98017.78
2023-11-22T01:04:01.666Z,98009.09
2023-11-22T01:06:30.202Z,98005.09
2023-11-22T01:08:57.472Z,98002.69
2023-11-22T01:11:24.549Z,98001.81
2023-11-22T01:13:51.612Z,98008.09
2023-11-22T01:16:18.669Z,98013.34
2023-11-22T01:18:47.573Z,98006.44
2023-11-22T01:21:17.337Z,98003.66
2023-11-22T01:23:46.300Z,97988.47
2023-11-22T01:26:13.446Z,97993.81
2023-11-22T01:28:45.287Z,98003.28
2023-11-22T01:31:14.145Z,97990.13
2023-11-22T01:33:41.480Z,97955.63
2023-11-22T01:36:09.137Z,97946.34
2023-11-22T01:38:40.389Z,97953.28
2023-11-22T01:41:08.208Z,97961.41
2023-11-22T01:43:35.160Z,97971.53
2023-11-22T01:46:02.480Z,97971.19
2023-11-22T01:48:29.632Z,97969.38
2023-11-22T01:50:56.850Z,97969.38
2023-11-22T01:53:25.037Z,97978.66
2023-11-22T01:55:53.573Z,97980.44
2023-11-22T01:58:21.060Z,97974.31
2023-11-22T02:00:50.988Z,97981.03
2023-11-22T02:03:18.479Z,97976.09
2023-11-22T02:05:46.490Z,97975.09
2023-11-22T02:08:14.395Z,97981.66
2023-11-22T02:10:41.966Z,97983.88
2023-11-22T02:13:11.322Z,97986.44
2023-11-22T02:15:39.616Z,97988.00
2023-11-22T02:18:13.653Z,97995.72
2023-11-22T02:20:42.663Z,97984.66
2023-11-22T02:23:12.565Z,97984.66
2023-11-22T02:25:40.213Z,97988.78
2023-11-22T02:28:10.030Z,97997.47
2023-11-22T02:30:37.772Z,98002.03
2023-11-22T02:33:06.120Z,98013.09
2023-11-22T02:35:34.160Z,98000.47
2023-11-22T02:38:01.840Z,98005.81
2023-11-22T02:40:30.281Z,98014.31
2023-11-22T02:43:02.132Z,98021.41
2023-11-22T02:45:30.026Z,98029.91
2023-11-22T02:47:57.184Z,98031.13
2023-11-22T02:50:24.375Z,98030.34
2023-11-22T02:52:51.383Z,98037.44
2023-11-22T02:55:18.612Z,98037.91
2023-11-22T02:57:47.898Z,98038.88
2023-11-22T03:00:15.988Z,98043.78
2023-11-22T03:02:43.156Z,98047.16
2023-11-22T03:05:11.401Z,98038.13
2023-11-22T03:07:38.758Z,98039.09
2023-11-22T03:10:08.695Z,98034.97
2023-11-22T03:12:35.839Z,98032.41
2023-11-22T03:15:04.798Z,98035.97
2023-11-22T03:17:34.377Z,98020.00
2023-11-22T03:20:01.975Z,98020.00
2023-11-22T03:22:32.024Z,98023.56
2023-11-22T03:25:02.391Z,98024.34
2023-11-22T03:27:29.394Z,98008.94
2023-11-22T03:29:56.400Z,97994.56
2023-11-22T03:32:24.828Z,98001.50
2023-11-22T03:34:52.230Z,98007.03
2023-11-22T03:37:19.425Z,97995.78
2023-11-22T03:39:49.902Z,98009.41
2023-11-22T03:42:20.147Z,97991.22
2023-11-22T03:44:47.184Z,98006.03
2023-11-22T03:47:16.870Z,98018.88
2023-11-22T03:49:47.424Z,98010.16
2023-11-22T03:52:15.612Z,98006.63
2023-11-22T03:54:42.614Z,98004.59
2023-11-22T03:57:09.690Z,98012.69
2023-11-22T03:59:36.934Z,98010.88
2023-11-22T04:02:04.132Z,98016.81
2023-11-22T04:04:31.638Z,98026.84
2023-11-22T04:07:00.015Z,98023.06
2023-11-22T04:09:27.019Z,98027.63
2023-11-22T04:11:54.082Z,98025.41
2023-11-22T04:14:23.066Z,98018.72
2023-11-22T04:16:50.643Z,98021.13
2023-11-22T04:19:17.827Z,98035.38
2023-11-22T04:21:45.619Z,98045.75
2023-11-22T04:24:14.024Z,98057.34
2023-11-22T04:26:41.081Z,98049.91
2023-11-22T04:29:08.128Z,98055.44
2023-11-22T04:31:35.266Z,98069.63
2023-11-22T04:34:02.389Z,98083.22
2023-11-22T04:36:30.620Z,98075.59
2023-11-22T04:38:57.690Z,98090.03
2023-11-22T04:41:27.535Z,98094.00
2023-11-22T04:43:54.697Z,98091.63
2023-11-22T04:46:21.819Z,98091.84
2023-11-22T04:48:52.409Z,98091.84
2023-11-22T04:51:19.828Z,98091.06
2023-11-22T04:53:46.901Z,98101.69
2023-11-22T04:56:14.524Z,98101.66
2023-11-22T04:58:43.148Z,98115.41
2023-11-22T05:01:13.249Z,98107.84
2023-11-22T05:03:40.363Z,98113.38
2023-11-22T05:06:08.185Z,98121.22
2023-11-22T05:08:35.805Z,98129.31
2023-11-22T05:11:04.261Z,98117.84
2023-11-22T05:13:31.392Z,98121.19
2023-11-22T05:15:59.876Z,98123.56
2023-11-22T05:18:27.042Z,98119.97
2023-11-22T05:20:54.140Z,98118.41
2023-11-22T05:23:21.383Z,98121.53
2023-11-22T05:25:48.706Z,98118.78
2023-11-22T05:28:15.652Z,98114.44
2023-11-22T05:30:42.911Z,98116.22
2023-11-22T05:33:11.378Z,98127.81
2023-11-22T05:35:38.428Z,98128.41
2023-11-22T05:38:05.456Z,98136.31
2023-11-22T05:40:32.419Z,98143.00
2023-11-22T05:42:59.448Z,98137.66
2023-11-22T05:45:26.445Z,98143.16
2023-11-22T05:47:54.035Z,98145.53
2023-11-22T05:50:23.052Z,98146.66
2023-11-22T05:52:50.094Z,98151.00
2023-11-22T05:55:19.411Z,98152.22
2023-11-22T05:57:46.424Z,98153.97
2023-11-22T06:00:15.552Z,98139.97
2023-11-22T06:02:42.945Z,98140.53
2023-11-22T06:05:11.124Z,98152.94
2023-11-22T06:07:39.679Z,98171.47
2023-11-22T06:10:07.681Z,98174.03
2023-11-22T06:12:34.775Z,98198.69
2023-11-22T06:15:01.708Z,98198.09
2023-11-22T06:17:30.958Z,98206.66
2023-11-22T06:19:58.088Z,98210.56
2023-11-22T06:22:25.073Z,98219.00
2023-11-22T06:24:53.943Z,98214.41
2023-11-22T06:27:21.772Z,98210.75
2023-11-22T06:29:48.823Z,98222.53
2023-11-22T06:32:16.002Z,98224.84
2023-11-22T06:34:43.309Z,98226.97
2023-11-22T06:37:10.299Z,98226.78
2023-11-22T06:39:38.466Z,98227.19
2023-11-22T06:42:07.616Z,98236.53
2023-11-22T06:44:35.419Z,98241.66
2023-11-22T06:47:03.140Z,98237.94
2023-11-22T06:49:30.317Z,98242.66
2023-11-22T06:51:57.578Z,98247.72
2023-11-22T06:54:24.569Z,98245.31
2023-11-22T06:56:52.438Z,98236.78
2023-11-22T06:59:20.945Z,98248.00
2023-11-22T07:01:48.080Z,98256.63
2023-11-22T07:04:15.214Z,98253.97
2023-11-22T07:06:43.968Z,98249.22
2023-11-22T07:09:11.768Z,98253.72
2023-11-22T07:11:38.895Z,98248.94
2023-11-22T07:14:06.744Z,98239.03
2023-11-22T07:16:35.314Z,98244.31
2023-11-22T07:19:07.910Z,98258.28
2023-11-22T07:21:38.956Z,98256.84
2023-11-22T07:24:10.316Z,98262.69
2023-11-22T07:26:38.497Z,98271.13
2023-11-22T07:29:07.462Z,98271.63
2023-11-22T07:31:37.177Z,98267.41
2023-11-22T07:34:04.173Z,98265.81
2023-11-22T07:36:31.910Z,98266.16
2023-11-22T07:39:00.494Z,98270.88
2023-11-22T07:41:27.860Z,98273.22
2023-11-22T07:43:54.967Z,98285.06
2023-11-22T07:46:22.026Z,98287.22
2023-11-22T07:48:50.706Z,98294.69
2023-11-22T07:51:18.078Z,98282.44
2023-11-22T07:53:45.602Z,98287.56
2023-11-22T07:56:13.013Z,98287.56
2023-11-22T07:58:40.423Z,98295.28
2023-11-22T08:01:14.246Z,98299.19
2023-11-22T08:03:47.812Z,98293.06
2023-11-22T08:06:18.388Z,98294.63
2023-11-22T08:08:47.425Z,98298.56
2023-11-22T08:11:18.981Z,98288.81
2023-11-22T08:13:46.761Z,98295.91
2023-11-22T08:16:17.164Z,98286.97
2023-11-22T08:18:44.898Z,98294.56
2023-11-22T08:21:12.810Z,98293.53
2023-11-22T08:23:41.330Z,98300.81
2023-11-22T08:26:09.880Z,98296.81
2023-11-22T08:28:37.132Z,98300.50
2023-11-22T08:31:05.484Z,98299.31
2023-11-22T08:33:32.868Z,98315.88
2023-11-22T08:36:02.164Z,98318.34
2023-11-22T08:38:29.269Z,98321.84
2023-11-22T08:40:57.832Z,98325.53
2023-11-22T08:43:27.014Z,98331.38
2023-11-22T08:46:01.403Z,98328.97
2023-11-22T08:48:38.591Z,98334.00
2023-11-22T08:51:09.169Z,98336.28
2023-11-22T08:53:36.735Z,98344.47
2023-11-22T08:56:10.704Z,98344.94
2023-11-22T08:58:38.316Z,98335.09
2023-11-22T09:01:05.647Z,98343.28
2023-11-22T09:03:34.081Z,98335.25
2023-11-22T09:06:01.568Z,98356.13
2023-11-22T09:08:31.341Z,98349.06
2023-11-22T09:10:58.672Z,98353.31
2023-11-22T09:13:27.074Z,98354.22
2023-11-22T09:15:54.060Z,98350.41
2023-11-22T09:18:23.842Z,98343.81
2023-11-22T09:20:50.928Z,98354.00
2023-11-22T09:23:18.380Z,98350.75
2023-11-22T09:25:45.493Z,98362.16
2023-11-22T09:28:12.459Z,98369.22
2023-11-22T09:30:42.421Z,98364.44
2023-11-22T09:33:11.891Z,98359.13
2023-11-22T09:35:40.707Z,98370.34
2023-11-22T09:38:17.022Z,98378.97
2023-11-22T09:40:46.571Z,98380.88
2023-11-22T09:43:18.356Z,98383.78
2023-11-22T09:45:49.712Z,98381.75
2023-11-22T09:48:21.650Z,98384.69
2023-11-22T09:50:54.313Z,98394.53
2023-11-22T09:53:32.860Z,98381.41
2023-11-22T09:56:00.287Z,98384.53
2023-11-22T09:58:31.092Z,98384.31
2023-11-22T10:01:01.139Z,98387.47
2023-11-22T10:03:32.363Z,98385.66
2023-11-22T10:06:00.380Z,98383.41
2023-11-22T10:08:28.517Z,98385.44
2023-11-22T10:10:55.840Z,98398.00
2023-11-22T10:13:23.455Z,98389.38
2023-11-22T10:15:51.213Z,98388.47
2023-11-22T10:18:20.266Z,98394.88
2023-11-22T10:20:50.550Z,98393.31
2023-11-22T10:23:19.164Z,98399.72
2023-11-22T10:25:48.987Z,98389.63
2023-11-22T10:28:16.111Z,98400.47
2023-11-22T10:30:43.408Z,98397.44
2023-11-22T10:33:13.574Z,98396.34
2023-11-22T10:35:43.761Z,98405.41
2023-11-22T10:38:11.772Z,98401.94
2023-11-22T10:40:39.407Z,98399.25
2023-11-22T10:43:09.103Z,98409.22
2023-11-22T10:45:38.387Z,98414.84
2023-11-22T10:48:06.467Z,98426.28
2023-11-22T10:50:33.609Z,98429.41
2023-11-22T10:53:07.317Z,98435.69
2023-11-22T10:55:36.132Z,98431.44
2023-11-22T10:58:04.501Z,98436.00
2023-11-22T11:00:33.683Z,98443.28
2023-11-22T11:03:03.459Z,98447.41
2023-11-22T11:05:32.626Z,98451.09
2023-11-22T11:08:04.273Z,98447.38
2023-11-22T11:10:32.708Z,98450.97
2023-11-22T11:13:00.846Z,98454.63
2023-11-22T11:15:28.694Z,98450.44
2023-11-22T11:17:56.164Z,98442.00
2023-11-22T11:20:24.970Z,98448.72
2023-11-22T11:22:54.169Z,98445.78
2023-11-22T11:25:24.161Z,98445.88
2023-11-22T11:28:00.414Z,98438.59
2023-11-22T11:30:47.228Z,98437.03
2023-11-22T11:33:18.399Z,98434.09
2023-11-22T11:35:48.779Z,98447.19
2023-11-22T11:38:18.349Z,98445.41
2023-11-22T11:40:49.376Z,98459.72
2023-11-22T11:43:21.303Z,98457.78
2023-11-22T11:45:48.346Z,98457.78
2023-11-22T11:48:19.478Z,98449.50
2023-11-22T11:50:47.721Z,98458.09
2023-11-22T11:53:14.947Z,98461.09
2023-11-22T11:55:42.147Z,98467.03
2023-11-22T11:58:10.617Z,98468.22
2023-11-22T12:00:41.684Z,98460.94
2023-11-22T12:03:11.008Z,98469.09
2023-11-22T12:05:38.581Z,98468.75
2023-11-22T12:08:06.109Z,98471.94
2023-11-22T12:10:33.564Z,98470.97
2023-11-22T12:13:01.359Z,98470.00
2023-11-22T12:15:30.545Z,98471.81
2023-11-22T12:17:59.695Z,98479.53
2023-11-22T12:20:32.358Z,98489.81
2023-11-22T12:23:01.687Z,98481.91
2023-11-22T12:25:28.953Z,98486.03
2023-11-22T12:27:56.464Z,98487.75
2023-11-22T12:30:33.372Z,98479.81
2023-11-22T12:33:04.415Z,98489.97
2023-11-22T12:35:33.567Z,98481.25
2023-11-22T12:38:01.548Z,98482.03
2023-11-22T12:40:29.358Z,98492.09
2023-11-22T12:42:57.008Z,98490.97
2023-11-22T12:45:25.775Z,98495.69
2023-11-22T12:47:55.897Z,98501.63
2023-11-22T12:50:34.274Z,98509.91
2023-11-22T12:53:09.669Z,98510.69
2023-11-22T12:55:37.946Z,98512.25
2023-11-22T12:58:05.021Z,98512.25
2023-11-22T13:00:32.478Z,98510.41
2023-11-22T13:03:03.768Z,98516.25
2023-11-22T13:05:32.396Z,98520.41
2023-11-22T13:08:00.965Z,98520.97
2023-11-22T13:10:30.721Z,98521.78
2023-11-22T13:12:59.645Z,98527.91
2023-11-22T13:15:29.967Z,98530.69
2023-11-22T13:17:57.723Z,98537.06
2023-11-22T13:20:27.369Z,98545.00
2023-11-22T13:22:54.835Z,98551.84
2023-11-22T13:25:22.106Z,98555.69
2023-11-22T13:27:49.810Z,98553.97
2023-11-22T13:30:18.961Z,98565.47
2023-11-22T13:32:46.129Z,98584.09
2023-11-22T13:35:16.292Z,98588.09
2023-11-22T13:37:45.387Z,98585.00
2023-11-22T13:40:17.388Z,98582.63
2023-11-22T13:42:46.024Z,98589.25
2023-11-22T13:45:18.171Z,98603.75
2023-11-22T13:47:48.064Z,98604.78
2023-11-22T13:50:20.358Z,98613.69
2023-11-22T13:52:49.496Z,98621.22
2023-11-22T13:55:18.815Z,98616.50
2023-11-22T13:57:45.770Z,98618.50
2023-11-22T14:00:36.667Z,98630.72
2023-11-22T14:03:08.901Z,98620.84
2023-11-22T14:05:39.524Z,98632.34
2023-11-22T14:08:08.674Z,98639.03
2023-11-22T14:10:35.858Z,98637.88
2023-11-22T14:13:04.364Z,98638.28
2023-11-22T14:15:31.996Z,98635.56
2023-11-22T14:17:59.405Z,98646.25
2023-11-22T14:20:26.864Z,98641.31
2023-11-22T14:22:54.264Z,98642.13
2023-11-22T14:25:22.714Z,98644.53
2023-11-22T14:27:54.314Z,98650.22
2023-11-22T14:30:22.893Z,98660.31
2023-11-22T14:32:52.518Z,98666.28
2023-11-22T14:35:20.084Z,98655.03
2023-11-22T14:37:47.251Z,98654.44
2023-11-22T14:40:18.378Z,98655.44
2023-11-22T14:42:49.046Z,98662.94
2023-11-22T14:45:16.426Z,98669.84
2023-11-22T14:47:46.085Z,98678.72
2023-11-22T14:50:15.873Z,98680.28
2023-11-22T14:52:44.296Z,98671.63
2023-11-22T14:55:13.726Z,98670.25
2023-11-22T14:57:42.027Z,98670.84
2023-11-22T15:00:15.085Z,98654.25
2023-11-22T15:02:49.011Z,98658.56
2023-11-22T15:05:16.188Z,98658.78
2023-11-22T15:07:43.751Z,98671.63
2023-11-22T15:10:11.218Z,98678.34
2023-11-22T15:12:38.427Z,98685.84
2023-11-22T15:15:06.029Z,98692.97
2023-11-22T15:17:34.504Z,98698.88
2023-11-22T15:20:01.759Z,98697.50
2023-11-22T15:22:28.793Z,98711.34
2023-11-22T15:24:55.884Z,98717.47
2023-11-22T15:27:26.201Z,98726.16
2023-11-22T15:29:53.690Z,98745.09
2023-11-22T15:32:20.854Z,98750.25
2023-11-22T15:34:49.338Z,98750.63
2023-11-22T15:37:17.916Z,98753.22
2023-11-22T15:39:45.231Z,98746.91
2023-11-22T15:42:13.029Z,98759.94
2023-11-22T15:44:40.019Z,98758.16
2023-11-22T15:47:12.884Z,98761.31
2023-11-22T15:49:42.146Z,98779.69
2023-11-22T15:52:10.842Z,98785.22
2023-11-22T15:54:38.690Z,98798.84
2023-11-22T15:57:06.153Z,98803.97
2023-11-22T15:59:33.536Z,98807.75
2023-11-22T16:02:00.617Z,98813.84
2023-11-22T16:04:27.728Z,98816.59
2023-11-22T16:06:55.724Z,98823.75
2023-11-22T16:09:24.121Z,98831.63
2023-11-22T16:11:51.590Z,98836.38
2023-11-22T16:14:18.746Z,98841.91
2023-11-22T16:16:46.302Z,98839.53
2023-11-22T16:19:13.636Z,98846.44
2023-11-22T16:21:40.907Z,98861.44
2023-11-22T16:24:08.533Z,98857.50
2023-11-22T16:26:38.524Z,98865.56
2023-11-22T16:29:05.539Z,98862.63
2023-11-22T16:31:32.654Z,98856.13
2023-11-22T16:34:00.526Z,98850.56
2023-11-22T16:36:28.023Z,98852.56
2023-11-22T16:38:56.088Z,98855.72
2023-11-22T16:41:25.952Z,98865.97
2023-11-22T16:43:54.729Z,98860.84
2023-11-22T16:46:21.889Z,98867.91
2023-11-22T16:48:54.876Z,98879.56
2023-11-22T16:51:22.085Z,98891.22
2023-11-22T16:53:49.838Z,98898.50
2023-11-22T16:56:19.563Z,98892.97
2023-11-22T16:58:46.801Z,98904.41
2023-11-22T17:01:15.215Z,98908.94
2023-11-22T17:03:43.139Z,98896.69
2023-11-22T17:06:10.351Z,98906.75
2023-11-22T17:08:37.400Z,98916.44
2023-11-22T17:11:04.849Z,98933.56
2023-11-22T17:13:32.005Z,98933.38
2023-11-22T17:15:59.214Z,98943.84
2023-11-22T17:18:27.706Z,98942.66
2023-11-22T17:20:55.949Z,98958.00
2023-11-22T17:23:22.926Z,98942.03
2023-11-22T17:25:49.945Z,98948.72
2023-11-22T17:28:16.902Z,98948.53
2023-11-22T17:30:43.908Z,98951.09
2023-11-22T17:33:10.989Z,98949.53
2023-11-22T17:35:39.450Z,98957.41
2023-11-22T17:38:06.458Z,98962.09
2023-11-22T17:40:33.584Z,98972.97
2023-11-22T17:43:02.250Z,98971.53
2023-11-22T17:45:29.546Z,98975.84
2023-11-22T17:47:56.711Z,98980.38
2023-11-22T17:50:23.883Z,98988.44
2023-11-22T17:52:52.247Z,98988.00
2023-11-22T17:55:20.919Z,98987.84
2023-11-22T17:57:48.033Z,98995.09
2023-11-22T18:00:15.882Z,98996.28
2023-11-22T18:02:43.048Z,99005.72
2023-11-22T18:05:10.340Z,99005.34
2023-11-22T18:07:38.911Z,99013.03
2023-11-22T18:10:07.665Z,99011.84
2023-11-22T18:12:34.780Z,99013.63
2023-11-22T18:15:01.884Z,99008.34
2023-11-22T18:17:29.000Z,99006.13
2023-11-22T18:19:56.133Z,99013.41
2023-11-22T18:22:24.382Z,99014.75
2023-11-22T18:24:51.372Z,99021.63
2023-11-22T18:27:19.734Z,99024.53
2023-11-22T18:29:46.841Z,99030.22
2023-11-22T18:32:14.356Z,99027.63
2023-11-22T18:34:42.074Z,99031.16
2023-11-22T18:37:09.276Z,99035.06
2023-11-22T18:39:36.353Z,99045.66
2023-11-22T18:42:04.461Z,99036.41
2023-11-22T18:44:37.566Z,99041.53
2023-11-22T18:47:05.039Z,99048.59
2023-11-22T18:49:32.292Z,99062.38
2023-11-22T18:51:59.260Z,99075.81
2023-11-22T18:54:26.391Z,99069.31
2023-11-22T18:56:53.664Z,99070.88
2023-11-22T18:59:20.861Z,99074.03
2023-11-22T19:01:49.667Z,99068.91
2023-11-22T19:04:16.724Z,99071.66
2023-11-22T19:06:43.951Z,99076.38
2023-11-22T19:09:14.069Z,99083.06
2023-11-22T19:11:43.820Z,99090.16
2023-11-22T19:14:11.362Z,99087.59
2023-11-22T19:16:38.451Z,99092.53
2023-11-22T19:19:07.058Z,99095.31
2023-11-22T19:21:34.436Z,99099.28
2023-11-22T19:24:02.499Z,99102.03
2023-11-22T19:26:34.289Z,99107.78
2023-11-22T19:29:02.211Z,99107.16
2023-11-22T19:31:29.487Z,99114.25
2023-11-22T19:33:57.626Z,99117.56
2023-11-22T19:36:27.609Z,99111.50
2023-11-22T19:38:55.257Z,99117.03
2023-11-22T19:41:23.057Z,99101.44
2023-11-22T19:43:50.315Z,99113.81
2023-11-22T19:46:17.715Z,99113.38
2023-11-22T19:48:45.175Z,99119.06
2023-11-22T19:51:12.944Z,99124.97
2023-11-22T19:53:42.890Z,99132.22
2023-11-22T19:56:10.199Z,99142.09
2023-11-22T19:58:37.392Z,99137.56
2023-11-22T20:01:07.012Z,99134.59
2023-11-22T20:03:34.331Z,99136.34
2023-11-22T20:06:01.906Z,99161.38
2023-11-22T20:08:29.004Z,99158.19
2023-11-22T20:10:57.536Z,99159.16
2023-11-22T20:13:24.511Z,99167.66
2023-11-22T20:15:52.990Z,99171.59
2023-11-22T20:18:20.197Z,99173.72
2023-11-22T20:20:47.455Z,99169.59
2023-11-22T20:23:18.208Z,99168.00
2023-11-22T20:25:45.541Z,99172.50
2023-11-22T20:28:14.788Z,99170.94
2023-11-22T20:30:42.068Z,99171.88
2023-11-22T20:33:09.650Z,99183.56
2023-11-22T20:35:36.731Z,99182.38
2023-11-22T20:38:03.839Z,99189.44
2023-11-22T20:40:30.881Z,99188.84
2023-11-22T20:42:59.194Z,99206.69
2023-11-22T20:45:27.624Z,99204.69
2023-11-22T20:47:55.365Z,99212.72
2023-11-22T20:50:24.814Z,99220.91
2023-11-22T20:52:52.052Z,99227.97
2023-11-22T20:55:19.147Z,99227.53
2023-11-22T20:57:46.132Z,99222.50
2023-11-22T21:00:15.675Z,99234.41
2023-11-22T21:02:45.465Z,99234.78
2023-11-22T21:05:13.079Z,99236.53
2023-11-22T21:07:40.938Z,99241.81
2023-11-22T21:10:08.649Z,99240.84
2023-11-22T21:12:35.595Z,99236.25
2023-11-22T21:15:03.229Z,99244.13
2023-11-22T21:17:40.600Z,99241.75
2023-11-22T21:20:13.923Z,99250.38
2023-11-22T21:22:41.499Z,99252.66
2023-11-22T21:25:11.870Z,99257.66
2023-11-22T21:27:41.626Z,99260.78
2023-11-22T21:30:11.204Z,99265.16
2023-11-22T21:32:38.476Z,99268.84
2023-11-22T21:35:06.726Z,99272.44
2023-11-22T21:37:35.272Z,99264.31
2023-11-22T21:40:05.191Z,99268.19
2023-11-22T21:42:33.549Z,99283.53
2023-11-22T21:45:00.544Z,99279.25
2023-11-22T21:47:27.710Z,99279.25
2023-11-22T21:49:54.681Z,99269.22
2023-11-22T21:52:21.629Z,99271.00
2023-11-22T21:54:50.128Z,99266.38
2023-11-22T21:57:17.924Z,99273.25
2023-11-22T21:59:44.899Z,99268.31
2023-11-22T22:02:11.962Z,99276.59
2023-11-22T22:04:39.290Z,99276.78
2023-11-22T22:07:07.092Z,99282.22
2023-11-22T22:09:35.258Z,99278.09
2023-11-22T22:12:04.114Z,99280.50
2023-11-22T22:14:33.481Z,99287.69
2023-11-22T22:17:03.385Z,99290.44
2023-11-22T22:19:30.527Z,99287.06
2023-11-22T22:21:57.644Z,99290.59
2023-11-22T22:24:24.596Z,99284.06
2023-11-22T22:26:52.460Z,99293.31
2023-11-22T22:29:21.005Z,99293.31
2023-11-22T22:31:48.092Z,99288.84
2023-11-22T22:34:15.106Z,99287.25
2023-11-22T22:36:42.104Z,99287.88
2023-11-22T22:39:10.441Z,99288.50
2023-11-22T22:41:39.020Z,99290.09
2023-11-22T22:44:07.061Z,99286.41
2023-11-22T22:46:39.781Z,99287.53
2023-11-22T22:49:07.275Z,99284.50
2023-11-22T22:51:34.681Z,99286.47
2023-11-22T22:54:02.192Z,99294.28
2023-11-22T22:56:29.170Z,99291.91
2023-11-22T22:58:56.292Z,99293.31
2023-11-22T23:01:23.342Z,99295.09
2023-11-22T23:03:51.924Z,99297.28
2023-11-22T23:06:23.053Z,99291.84
2023-11-22T23:08:53.263Z,99300.31
2023-11-22T23:11:20.761Z,99310.19
2023-11-22T23:13:48.291Z,99310.19
2023-11-22T23:16:15.394Z,99313.53
2023-11-22T23:18:43.346Z,99306.06
2023-11-22T23:21:12.993Z,99314.19
2023-11-22T23:23:39.994Z,99315.31
2023-11-22T23:26:07.048Z,99314.50
2023-11-22T23:28:36.161Z,99319.94
2023-11-22T23:31:06.088Z,99319.63
2023-11-22T23:33:33.256Z,99320.13
2023-11-22T23:36:05.070Z,99317.41
2023-11-22T23:38:34.559Z,99321.69
2023-11-22T23:41:02.096Z,99336.41
2023-11-22T23:43:35.252Z,99338.31
2023-11-22T23:46:03.068Z,99345.03
2023-11-22T23:48:30.198Z,99321.19
2023-11-22T23:50:57.332Z,99317.41
2023-11-22T23:53:24.340Z,99327.78
2023-11-22T23:55:52.694Z,99330.50
2023-11-22T23:58:19.694Z,99331.81
